sensor_id;sensor_type;location;lat;lon;timestamp;P1;durP1;ratioP1;P2;durP2;ratioP2
77038;SDS011;65970;50.476;4.840;2023-12-20T00:02:20;2.47;;;0.95;;
77038;SDS011;65970;50.476;4.840;2023-12-20T00:07:21;1.02;;;0.88;;
77038;SDS011;65970;50.476;4.840;2023-12-20T00:12:21;2.17;;;1.02;;
77038;SDS011;65970;50.476;4.840;2023-12-20T00:17:22;3.72;;;0.90;;
77038;SDS011;65970;50.476;4.840;2023-12-20T00:22:22;3.47;;;0.47;;
77038;SDS011;65970;50.476;4.840;2023-12-20T00:27:23;3.70;;;0.70;;
77038;SDS011;65970;50.476;4.840;2023-12-20T00:32:24;0.90;;;0.47;;
77038;SDS011;65970;50.476;4.840;2023-12-20T00:37:24;1.80;;;0.68;;
77038;SDS011;65970;50.476;4.840;2023-12-20T00:42:25;0.40;;;0.40;;
77038;SDS011;65970;50.476;4.840;2023-12-20T00:47:25;3.58;;;0.75;;
77038;SDS011;65970;50.476;4.840;2023-12-20T00:52:26;1.58;;;0.90;;
77038;SDS011;65970;50.476;4.840;2023-12-20T00:57:26;3.47;;;0.95;;
77038;SDS011;65970;50.476;4.840;2023-12-20T01:02:27;4.25;;;0.55;;
77038;SDS011;65970;50.476;4.840;2023-12-20T01:07:27;2.67;;;0.68;;
77038;SDS011;65970;50.476;4.840;2023-12-20T01:12:28;5.35;;;0.73;;
77038;SDS011;65970;50.476;4.840;2023-12-20T01:17:29;1.92;;;0.70;;
77038;SDS011;65970;50.476;4.840;2023-12-20T01:22:29;1.88;;;0.70;;
77038;SDS011;65970;50.476;4.840;2023-12-20T01:27:30;1.33;;;0.65;;
77038;SDS011;65970;50.476;4.840;2023-12-20T01:32:30;8.93;;;0.55;;
77038;SDS011;65970;50.476;4.840;2023-12-20T01:37:31;5.57;;;0.63;;
77038;SDS011;65970;50.476;4.840;2023-12-20T01:42:31;1.40;;;0.45;;
77038;SDS011;65970;50.476;4.840;2023-12-20T01:47:32;0.80;;;0.60;;
77038;SDS011;65970;50.476;4.840;2023-12-20T01:52:33;2.38;;;0.60;;
77038;SDS011;65970;50.476;4.840;2023-12-20T01:57:35;4.00;;;0.82;;
77038;SDS011;65970;50.476;4.840;2023-12-20T02:02:36;4.90;;;0.93;;
77038;SDS011;65970;50.476;4.840;2023-12-20T02:07:39;3.50;;;0.77;;
77038;SDS011;65970;50.476;4.840;2023-12-20T02:12:39;1.30;;;0.75;;
77038;SDS011;65970;50.476;4.840;2023-12-20T02:17:40;3.35;;;0.80;;
77038;SDS011;65970;50.476;4.840;2023-12-20T02:22:41;1.88;;;0.90;;
77038;SDS011;65970;50.476;4.840;2023-12-20T02:27:41;4.13;;;1.00;;
77038;SDS011;65970;50.476;4.840;2023-12-20T02:32:42;3.00;;;1.02;;
77038;SDS011;65970;50.476;4.840;2023-12-20T02:37:43;3.80;;;1.13;;
77038;SDS011;65970;50.476;4.840;2023-12-20T02:42:43;2.85;;;1.23;;
77038;SDS011;65970;50.476;4.840;2023-12-20T02:47:44;5.68;;;1.25;;
77038;SDS011;65970;50.476;4.840;2023-12-20T02:52:44;3.15;;;1.00;;
77038;SDS011;65970;50.476;4.840;2023-12-20T02:57:45;6.47;;;1.20;;
77038;SDS011;65970;50.476;4.840;2023-12-20T03:02:45;3.33;;;1.17;;
77038;SDS011;65970;50.476;4.840;2023-12-20T03:07:46;3.28;;;1.30;;
77038;SDS011;65970;50.476;4.840;2023-12-20T03:12:46;3.05;;;1.50;;
77038;SDS011;65970;50.476;4.840;2023-12-20T03:17:47;2.92;;;1.65;;
77038;SDS011;65970;50.476;4.840;2023-12-20T03:22:47;2.85;;;1.40;;
77038;SDS011;65970;50.476;4.840;2023-12-20T03:27:48;8.10;;;1.95;;
77038;SDS011;65970;50.476;4.840;2023-12-20T03:32:48;7.38;;;2.42;;
77038;SDS011;65970;50.476;4.840;2023-12-20T03:37:49;6.72;;;1.60;;
77038;SDS011;65970;50.476;4.840;2023-12-20T03:42:50;5.03;;;2.30;;
77038;SDS011;65970;50.476;4.840;2023-12-20T03:47:50;5.40;;;2.05;;
77038;SDS011;65970;50.476;4.840;2023-12-20T03:52:51;4.93;;;2.17;;
77038;SDS011;65970;50.476;4.840;2023-12-20T03:57:52;5.82;;;1.80;;
77038;SDS011;65970;50.476;4.840;2023-12-20T04:02:52;4.07;;;2.13;;
77038;SDS011;65970;50.476;4.840;2023-12-20T04:07:53;5.32;;;1.80;;
77038;SDS011;65970;50.476;4.840;2023-12-20T04:12:53;4.07;;;2.00;;
77038;SDS011;65970;50.476;4.840;2023-12-20T04:17:54;6.10;;;1.70;;
77038;SDS011;65970;50.476;4.840;2023-12-20T04:22:54;5.30;;;1.67;;
77038;SDS011;65970;50.476;4.840;2023-12-20T04:27:55;4.53;;;2.30;;
77038;SDS011;65970;50.476;4.840;2023-12-20T04:32:55;5.32;;;1.55;;
77038;SDS011;65970;50.476;4.840;2023-12-20T04:37:56;3.70;;;1.45;;
77038;SDS011;65970;50.476;4.840;2023-12-20T04:42:56;4.05;;;1.15;;
77038;SDS011;65970;50.476;4.840;2023-12-20T04:47:57;7.28;;;1.48;;
77038;SDS011;65970;50.476;4.840;2023-12-20T04:52:57;8.55;;;2.00;;
77038;SDS011;65970;50.476;4.840;2023-12-20T04:57:58;4.10;;;1.52;;
77038;SDS011;65970;50.476;4.840;2023-12-20T05:02:59;5.68;;;1.48;;
77038;SDS011;65970;50.476;4.840;2023-12-20T05:07:59;3.08;;;1.30;;
77038;SDS011;65970;50.476;4.840;2023-12-20T05:13:00;5.32;;;1.30;;
77038;SDS011;65970;50.476;4.840;2023-12-20T05:18:00;3.28;;;1.75;;
77038;SDS011;65970;50.476;4.840;2023-12-20T05:23:01;6.35;;;1.33;;
77038;SDS011;65970;50.476;4.840;2023-12-20T05:28:01;4.55;;;1.42;;
77038;SDS011;65970;50.476;4.840;2023-12-20T05:33:02;5.65;;;2.47;;
77038;SDS011;65970;50.476;4.840;2023-12-20T05:38:02;6.18;;;1.95;;
77038;SDS011;65970;50.476;4.840;2023-12-20T05:43:03;4.35;;;1.73;;
77038;SDS011;65970;50.476;4.840;2023-12-20T05:48:04;5.88;;;1.85;;
77038;SDS011;65970;50.476;4.840;2023-12-20T05:53:04;4.95;;;1.38;;
77038;SDS011;65970;50.476;4.840;2023-12-20T05:58:05;4.05;;;1.63;;
77038;SDS011;65970;50.476;4.840;2023-12-20T06:03:06;2.08;;;1.13;;
77038;SDS011;65970;50.476;4.840;2023-12-20T06:08:06;2.65;;;1.52;;
77038;SDS011;65970;50.476;4.840;2023-12-20T06:13:07;3.20;;;1.70;;
77038;SDS011;65970;50.476;4.840;2023-12-20T06:18:07;4.53;;;1.60;;
77038;SDS011;65970;50.476;4.840;2023-12-20T06:23:08;3.42;;;1.08;;
77038;SDS011;65970;50.476;4.840;2023-12-20T06:28:08;1.77;;;0.93;;
77038;SDS011;65970;50.476;4.840;2023-12-20T06:33:09;1.23;;;0.82;;
77038;SDS011;65970;50.476;4.840;2023-12-20T06:38:09;2.60;;;1.30;;
77038;SDS011;65970;50.476;4.840;2023-12-20T06:43:10;2.75;;;1.25;;
77038;SDS011;65970;50.476;4.840;2023-12-20T06:48:11;5.28;;;1.48;;
77038;SDS011;65970;50.476;4.840;2023-12-20T06:53:12;2.25;;;1.25;;
77038;SDS011;65970;50.476;4.840;2023-12-20T06:58:12;3.22;;;1.48;;
77038;SDS011;65970;50.476;4.840;2023-12-20T07:03:13;6.55;;;1.38;;
77038;SDS011;65970;50.476;4.840;2023-12-20T07:08:13;4.10;;;1.35;;
77038;SDS011;65970;50.476;4.840;2023-12-20T07:13:14;5.72;;;1.23;;
77038;SDS011;65970;50.476;4.840;2023-12-20T07:18:15;2.30;;;1.45;;
77038;SDS011;65970;50.476;4.840;2023-12-20T07:23:15;4.30;;;1.50;;
77038;SDS011;65970;50.476;4.840;2023-12-20T07:28:16;1.40;;;1.10;;
77038;SDS011;65970;50.476;4.840;2023-12-20T07:33:16;2.22;;;1.35;;
77038;SDS011;65970;50.476;4.840;2023-12-20T07:38:17;5.75;;;1.10;;
77038;SDS011;65970;50.476;4.840;2023-12-20T07:43:17;4.00;;;1.48;;
77038;SDS011;65970;50.476;4.840;2023-12-20T07:48:18;4.80;;;0.95;;
77038;SDS011;65970;50.476;4.840;2023-12-20T07:53:18;5.05;;;0.95;;
77038;SDS011;65970;50.476;4.840;2023-12-20T07:58:19;3.70;;;0.88;;
77038;SDS011;65970;50.476;4.840;2023-12-20T08:03:20;1.50;;;0.63;;
77038;SDS011;65970;50.476;4.840;2023-12-20T08:08:20;2.10;;;0.85;;
77038;SDS011;65970;50.476;4.840;2023-12-20T08:13:21;1.55;;;0.95;;
77038;SDS011;65970;50.476;4.840;2023-12-20T08:18:21;2.30;;;0.73;;
77038;SDS011;65970;50.476;4.840;2023-12-20T08:23:22;8.50;;;1.08;;
77038;SDS011;65970;50.476;4.840;2023-12-20T08:28:22;5.75;;;1.20;;
77038;SDS011;65970;50.476;4.840;2023-12-20T08:33:23;4.72;;;0.98;;
77038;SDS011;65970;50.476;4.840;2023-12-20T08:38:24;0.95;;;0.80;;
77038;SDS011;65970;50.476;4.840;2023-12-20T08:43:24;4.78;;;1.13;;
77038;SDS011;65970;50.476;4.840;2023-12-20T08:48:25;2.38;;;0.95;;
77038;SDS011;65970;50.476;4.840;2023-12-20T08:53:25;6.88;;;1.17;;
77038;SDS011;65970;50.476;4.840;2023-12-20T08:58:26;0.57;;;0.47;;
77038;SDS011;65970;50.476;4.840;2023-12-20T09:03:27;2.17;;;0.73;;
77038;SDS011;65970;50.476;4.840;2023-12-20T09:08:27;0.98;;;0.43;;
77038;SDS011;65970;50.476;4.840;2023-12-20T09:13:28;3.85;;;0.85;;
77038;SDS011;65970;50.476;4.840;2023-12-20T09:18:28;5.15;;;1.33;;
77038;SDS011;65970;50.476;4.840;2023-12-20T09:23:29;7.07;;;0.98;;
77038;SDS011;65970;50.476;4.840;2023-12-20T09:28:29;4.60;;;1.40;;
77038;SDS011;65970;50.476;4.840;2023-12-20T09:33:30;1.67;;;0.95;;
77038;SDS011;65970;50.476;4.840;2023-12-20T09:38:30;5.07;;;1.20;;
77038;SDS011;65970;50.476;4.840;2023-12-20T09:43:31;0.57;;;0.57;;
77038;SDS011;65970;50.476;4.840;2023-12-20T09:48:35;3.40;;;0.85;;
77038;SDS011;65970;50.476;4.840;2023-12-20T09:53:37;5.97;;;1.40;;
77038;SDS011;65970;50.476;4.840;2023-12-20T09:58:39;3.83;;;1.23;;
77038;SDS011;65970;50.476;4.840;2023-12-20T10:03:40;4.32;;;1.23;;
77038;SDS011;65970;50.476;4.840;2023-12-20T10:08:41;4.63;;;1.02;;
77038;SDS011;65970;50.476;4.840;2023-12-20T10:13:42;2.42;;;0.63;;
77038;SDS011;65970;50.476;4.840;2023-12-20T10:18:43;2.58;;;0.88;;
77038;SDS011;65970;50.476;4.840;2023-12-20T10:23:45;7.22;;;1.05;;
77038;SDS011;65970;50.476;4.840;2023-12-20T10:28:46;2.28;;;1.25;;
77038;SDS011;65970;50.476;4.840;2023-12-20T10:33:50;1.30;;;0.60;;
77038;SDS011;65970;50.476;4.840;2023-12-20T10:38:51;6.97;;;1.13;;
77038;SDS011;65970;50.476;4.840;2023-12-20T10:43:52;2.95;;;0.95;;
77038;SDS011;65970;50.476;4.840;2023-12-20T10:48:58;1.85;;;1.17;;
77038;SDS011;65970;50.476;4.840;2023-12-20T10:54:01;2.35;;;0.75;;
77038;SDS011;65970;50.476;4.840;2023-12-20T10:59:02;3.15;;;0.80;;
77038;SDS011;65970;50.476;4.840;2023-12-20T11:04:03;3.97;;;1.17;;
77038;SDS011;65970;50.476;4.840;2023-12-20T11:25:05;2.30;;;1.17;;
77038;SDS011;65970;50.476;4.840;2023-12-20T11:30:07;4.93;;;0.95;;
77038;SDS011;65970;50.476;4.840;2023-12-20T11:40:16;4.60;;;1.02;;
77038;SDS011;65970;50.476;4.840;2023-12-20T11:45:18;3.22;;;0.93;;
77038;SDS011;65970;50.476;4.840;2023-12-20T11:50:20;4.45;;;1.00;;
77038;SDS011;65970;50.476;4.840;2023-12-20T11:55:21;1.17;;;1.05;;
77038;SDS011;65970;50.476;4.840;2023-12-20T12:00:22;2.13;;;0.95;;
77038;SDS011;65970;50.476;4.840;2023-12-20T12:05:24;1.25;;;0.80;;
77038;SDS011;65970;50.476;4.840;2023-12-20T12:10:25;1.73;;;0.90;;
77038;SDS011;65970;50.476;4.840;2023-12-20T12:15:25;9.10;;;1.10;;
77038;SDS011;65970;50.476;4.840;2023-12-20T12:20:26;4.65;;;1.02;;
77038;SDS011;65970;50.476;4.840;2023-12-20T12:25:26;2.47;;;0.75;;
77038;SDS011;65970;50.476;4.840;2023-12-20T12:30:28;7.28;;;1.75;;
77038;SDS011;65970;50.476;4.840;2023-12-20T12:35:29;2.22;;;0.85;;
77038;SDS011;65970;50.476;4.840;2023-12-20T12:40:29;1.80;;;1.05;;
77038;SDS011;65970;50.476;4.840;2023-12-20T12:45:35;2.90;;;0.90;;
77038;SDS011;65970;50.476;4.840;2023-12-20T12:50:37;6.87;;;1.20;;
77038;SDS011;65970;50.476;4.840;2023-12-20T12:55:38;3.97;;;1.50;;
77038;SDS011;65970;50.476;4.840;2023-12-20T13:00:38;2.90;;;1.35;;
77038;SDS011;65970;50.476;4.840;2023-12-20T13:05:39;5.28;;;1.40;;
77038;SDS011;65970;50.476;4.840;2023-12-20T13:10:39;4.38;;;1.27;;
77038;SDS011;65970;50.476;4.840;2023-12-20T13:15:40;3.65;;;0.82;;
77038;SDS011;65970;50.476;4.840;2023-12-20T13:20:41;5.32;;;1.08;;
77038;SDS011;65970;50.476;4.840;2023-12-20T13:25:41;3.35;;;0.73;;
77038;SDS011;65970;50.476;4.840;2023-12-20T13:30:42;4.68;;;1.10;;
77038;SDS011;65970;50.476;4.840;2023-12-20T13:35:42;6.18;;;0.65;;
77038;SDS011;65970;50.476;4.840;2023-12-20T13:40:43;3.10;;;0.77;;
77038;SDS011;65970;50.476;4.840;2023-12-20T13:45:43;4.40;;;1.15;;
77038;SDS011;65970;50.476;4.840;2023-12-20T13:50:44;5.65;;;1.17;;
77038;SDS011;65970;50.476;4.840;2023-12-20T13:55:44;2.05;;;1.20;;
77038;SDS011;65970;50.476;4.840;2023-12-20T14:00:45;6.45;;;1.05;;
77038;SDS011;65970;50.476;4.840;2023-12-20T14:05:46;4.85;;;1.33;;
77038;SDS011;65970;50.476;4.840;2023-12-20T14:10:46;2.67;;;1.35;;
77038;SDS011;65970;50.476;4.840;2023-12-20T14:15:47;4.15;;;0.90;;
77038;SDS011;65970;50.476;4.840;2023-12-20T14:20:47;7.20;;;1.60;;
77038;SDS011;65970;50.476;4.840;2023-12-20T14:25:48;3.92;;;1.33;;
77038;SDS011;65970;50.476;4.840;2023-12-20T14:30:49;5.30;;;1.08;;
77038;SDS011;65970;50.476;4.840;2023-12-20T14:35:49;4.72;;;1.05;;
77038;SDS011;65970;50.476;4.840;2023-12-20T14:40:50;7.25;;;1.10;;
77038;SDS011;65970;50.476;4.840;2023-12-20T14:45:50;7.28;;;1.60;;
77038;SDS011;65970;50.476;4.840;2023-12-20T14:50:51;6.85;;;1.10;;
77038;SDS011;65970;50.476;4.840;2023-12-20T14:55:51;4.53;;;1.08;;
77038;SDS011;65970;50.476;4.840;2023-12-20T15:00:52;6.38;;;1.10;;
77038;SDS011;65970;50.476;4.840;2023-12-20T15:05:52;1.23;;;0.70;;
77038;SDS011;65970;50.476;4.840;2023-12-20T15:10:53;2.55;;;0.82;;
77038;SDS011;65970;50.476;4.840;2023-12-20T15:15:53;5.03;;;1.10;;
77038;SDS011;65970;50.476;4.840;2023-12-20T15:20:54;2.65;;;1.20;;
77038;SDS011;65970;50.476;4.840;2023-12-20T15:25:54;5.85;;;1.90;;
77038;SDS011;65970;50.476;4.840;2023-12-20T15:30:55;4.22;;;1.13;;
77038;SDS011;65970;50.476;4.840;2023-12-20T15:35:56;3.30;;;0.90;;
77038;SDS011;65970;50.476;4.840;2023-12-20T15:40:56;2.95;;;1.00;;
77038;SDS011;65970;50.476;4.840;2023-12-20T15:45:57;4.15;;;0.93;;
77038;SDS011;65970;50.476;4.840;2023-12-20T15:50:57;4.07;;;0.93;;
77038;SDS011;65970;50.476;4.840;2023-12-20T15:55:58;3.22;;;1.27;;
77038;SDS011;65970;50.476;4.840;2023-12-20T16:00:59;4.20;;;1.30;;
77038;SDS011;65970;50.476;4.840;2023-12-20T16:06:00;2.20;;;1.33;;
77038;SDS011;65970;50.476;4.840;2023-12-20T16:11:00;8.30;;;1.92;;
77038;SDS011;65970;50.476;4.840;2023-12-20T16:16:01;2.60;;;1.38;;
77038;SDS011;65970;50.476;4.840;2023-12-20T16:21:02;4.38;;;1.77;;
77038;SDS011;65970;50.476;4.840;2023-12-20T16:26:03;7.10;;;1.58;;
77038;SDS011;65970;50.476;4.840;2023-12-20T16:31:04;2.10;;;0.82;;
77038;SDS011;65970;50.476;4.840;2023-12-20T16:36:05;2.63;;;1.13;;
77038;SDS011;65970;50.476;4.840;2023-12-20T16:41:05;5.68;;;1.30;;
77038;SDS011;65970;50.476;4.840;2023-12-20T16:46:06;1.50;;;1.20;;
77038;SDS011;65970;50.476;4.840;2023-12-20T16:51:07;3.17;;;1.48;;
77038;SDS011;65970;50.476;4.840;2023-12-20T16:56:07;1.20;;;1.10;;
77038;SDS011;65970;50.476;4.840;2023-12-20T17:01:08;5.30;;;1.15;;
77038;SDS011;65970;50.476;4.840;2023-12-20T17:06:08;3.05;;;1.00;;
77038;SDS011;65970;50.476;4.840;2023-12-20T17:11:09;3.33;;;1.35;;
77038;SDS011;65970;50.476;4.840;2023-12-20T17:16:10;2.90;;;0.88;;
77038;SDS011;65970;50.476;4.840;2023-12-20T17:21:10;5.63;;;1.05;;
77038;SDS011;65970;50.476;4.840;2023-12-20T17:26:13;1.02;;;0.77;;
77038;SDS011;65970;50.476;4.840;2023-12-20T17:31:14;4.60;;;0.93;;
77038;SDS011;65970;50.476;4.840;2023-12-20T17:36:15;1.23;;;0.75;;
77038;SDS011;65970;50.476;4.840;2023-12-20T17:41:15;5.40;;;1.30;;
77038;SDS011;65970;50.476;4.840;2023-12-20T17:46:16;2.33;;;0.85;;
77038;SDS011;65970;50.476;4.840;2023-12-20T17:51:16;1.50;;;0.77;;
77038;SDS011;65970;50.476;4.840;2023-12-20T17:56:17;4.43;;;1.20;;
77038;SDS011;65970;50.476;4.840;2023-12-20T18:01:17;1.52;;;0.88;;
77038;SDS011;65970;50.476;4.840;2023-12-20T18:06:18;7.07;;;1.65;;
77038;SDS011;65970;50.476;4.840;2023-12-20T18:11:18;1.98;;;1.20;;
77038;SDS011;65970;50.476;4.840;2023-12-20T18:16:19;2.45;;;0.70;;
77038;SDS011;65970;50.476;4.840;2023-12-20T18:21:19;5.35;;;0.77;;
77038;SDS011;65970;50.476;4.840;2023-12-20T18:26:20;3.95;;;1.20;;
77038;SDS011;65970;50.476;4.840;2023-12-20T18:31:21;3.33;;;1.05;;
77038;SDS011;65970;50.476;4.840;2023-12-20T18:36:21;6.72;;;1.00;;
77038;SDS011;65970;50.476;4.840;2023-12-20T18:41:23;5.45;;;1.08;;
77038;SDS011;65970;50.476;4.840;2023-12-20T18:46:23;0.70;;;0.32;;
77038;SDS011;65970;50.476;4.840;2023-12-20T18:51:24;2.13;;;0.77;;
77038;SDS011;65970;50.476;4.840;2023-12-20T18:56:24;1.23;;;0.52;;
77038;SDS011;65970;50.476;4.840;2023-12-20T19:01:25;7.22;;;0.80;;
77038;SDS011;65970;50.476;4.840;2023-12-20T19:06:25;1.08;;;0.93;;
77038;SDS011;65970;50.476;4.840;2023-12-20T19:11:26;0.93;;;0.68;;
77038;SDS011;65970;50.476;4.840;2023-12-20T19:16:26;2.08;;;0.80;;
77038;SDS011;65970;50.476;4.840;2023-12-20T19:21:27;3.60;;;1.27;;
77038;SDS011;65970;50.476;4.840;2023-12-20T19:26:28;1.77;;;0.70;;
77038;SDS011;65970;50.476;4.840;2023-12-20T19:31:31;8.52;;;1.80;;
77038;SDS011;65970;50.476;4.840;2023-12-20T19:36:31;1.80;;;0.80;;
77038;SDS011;65970;50.476;4.840;2023-12-20T19:41:32;3.53;;;1.00;;
77038;SDS011;65970;50.476;4.840;2023-12-20T19:46:32;2.63;;;0.93;;
77038;SDS011;65970;50.476;4.840;2023-12-20T19:51:33;2.95;;;0.70;;
77038;SDS011;65970;50.476;4.840;2023-12-20T19:56:33;2.15;;;0.70;;
77038;SDS011;65970;50.476;4.840;2023-12-20T20:01:34;2.08;;;0.70;;
77038;SDS011;65970;50.476;4.840;2023-12-20T20:06:35;1.52;;;0.82;;
77038;SDS011;65970;50.476;4.840;2023-12-20T20:11:35;2.15;;;0.80;;
77038;SDS011;65970;50.476;4.840;2023-12-20T20:16:36;2.80;;;0.70;;
77038;SDS011;65970;50.476;4.840;2023-12-20T20:21:36;5.32;;;1.35;;
77038;SDS011;65970;50.476;4.840;2023-12-20T20:26:37;1.27;;;0.80;;
77038;SDS011;65970;50.476;4.840;2023-12-20T20:31:38;0.95;;;0.85;;
77038;SDS011;65970;50.476;4.840;2023-12-20T20:36:38;1.27;;;0.73;;
77038;SDS011;65970;50.476;4.840;2023-12-20T20:41:39;2.22;;;0.52;;
77038;SDS011;65970;50.476;4.840;2023-12-20T20:46:39;2.55;;;0.65;;
77038;SDS011;65970;50.476;4.840;2023-12-20T20:51:40;2.47;;;1.02;;
77038;SDS011;65970;50.476;4.840;2023-12-20T20:56:40;1.98;;;0.82;;
77038;SDS011;65970;50.476;4.840;2023-12-20T21:01:41;1.88;;;1.15;;
77038;SDS011;65970;50.476;4.840;2023-12-20T21:06:42;1.02;;;0.70;;
77038;SDS011;65970;50.476;4.840;2023-12-20T21:11:42;1.35;;;0.75;;
77038;SDS011;65970;50.476;4.840;2023-12-20T21:16:43;0.43;;;0.43;;
77038;SDS011;65970;50.476;4.840;2023-12-20T21:21:43;0.63;;;0.45;;
77038;SDS011;65970;50.476;4.840;2023-12-20T21:26:44;0.52;;;0.40;;
77038;SDS011;65970;50.476;4.840;2023-12-20T21:31:44;2.67;;;0.45;;
77038;SDS011;65970;50.476;4.840;2023-12-20T21:36:45;1.02;;;0.50;;
77038;SDS011;65970;50.476;4.840;2023-12-20T21:41:46;2.60;;;0.45;;
77038;SDS011;65970;50.476;4.840;2023-12-20T21:46:46;0.35;;;0.35;;
77038;SDS011;65970;50.476;4.840;2023-12-20T21:51:47;1.52;;;0.60;;
77038;SDS011;65970;50.476;4.840;2023-12-20T21:56:47;1.52;;;0.40;;
77038;SDS011;65970;50.476;4.840;2023-12-20T22:01:48;1.85;;;0.70;;
77038;SDS011;65970;50.476;4.840;2023-12-20T22:06:48;1.05;;;0.80;;
77038;SDS011;65970;50.476;4.840;2023-12-20T22:11:49;2.08;;;0.40;;
77038;SDS011;65970;50.476;4.840;2023-12-20T22:16:50;1.80;;;0.80;;
77038;SDS011;65970;50.476;4.840;2023-12-20T22:21:50;0.73;;;0.60;;
77038;SDS011;65970;50.476;4.840;2023-12-20T22:26:51;0.95;;;0.75;;
77038;SDS011;65970;50.476;4.840;2023-12-20T22:31:51;1.25;;;0.73;;
77038;SDS011;65970;50.476;4.840;2023-12-20T22:36:52;0.85;;;0.70;;
77038;SDS011;65970;50.476;4.840;2023-12-20T22:41:52;0.73;;;0.50;;
77038;SDS011;65970;50.476;4.840;2023-12-20T22:46:53;0.30;;;0.30;;
77038;SDS011;65970;50.476;4.840;2023-12-20T22:51:53;3.65;;;0.52;;
77038;SDS011;65970;50.476;4.840;2023-12-20T22:56:54;0.77;;;0.60;;
77038;SDS011;65970;50.476;4.840;2023-12-20T23:01:55;0.70;;;0.60;;
77038;SDS011;65970;50.476;4.840;2023-12-20T23:06:55;1.17;;;0.50;;
77038;SDS011;65970;50.476;4.840;2023-12-20T23:11:56;1.30;;;0.35;;
77038;SDS011;65970;50.476;4.840;2023-12-20T23:16:56;2.38;;;0.68;;
77038;SDS011;65970;50.476;4.840;2023-12-20T23:21:57;2.97;;;0.65;;
77038;SDS011;65970;50.476;4.840;2023-12-20T23:26:57;1.35;;;0.65;;
77038;SDS011;65970;50.476;4.840;2023-12-20T23:31:58;1.02;;;0.57;;
77038;SDS011;65970;50.476;4.840;2023-12-20T23:36:58;1.15;;;0.77;;
77038;SDS011;65970;50.476;4.840;2023-12-20T23:41:59;1.13;;;0.60;;
77038;SDS011;65970;50.476;4.840;2023-12-20T23:46:59;1.95;;;0.82;;
77038;SDS011;65970;50.476;4.840;2023-12-20T23:52:00;3.10;;;0.75;;
77038;SDS011;65970;50.476;4.840;2023-12-20T23:57:01;3.38;;;0.85;;
